Silverton, Idaho
Current Conditions -  °F | °C
As of 2:29 AM on Saturday 20 Dec 2014 (Local Time) from KMLP Reporting Station
Overcast Overcast  
Wind Chill: 25°   Ceiling: 700
Heat Index: 25°   Visibility: 10mi
Dew Point: 23°   Wind: 3mph
Humidity: 92%   Direction: NA
Pressure: 29.91"   Gusts: NA
Location:  47.49°N, 115.95°W
Report Text: KMLP 201029Z AUTO VRB03KT 10SM BKN007 OVC012 M04/M05 A2991 RMK AO2 CIG 004V010 T10391050
Loading
Personal Weather Stations






























Interactive Weather Map New forecast layout! Learn more

10-Day Weather Forecast

Advertisements
Track Severe Weather on mobile